sensor_id;sensor_type;location;lat;lon;timestamp;P1;durP1;ratioP1;P2;durP2;ratioP2
9844;SDS011;4961;50.782;6.080;2022-09-02T00:01:39;2.17;;;0.70;;
9844;SDS011;4961;50.782;6.080;2022-09-02T00:04:09;0.87;;;0.87;;
9844;SDS011;4961;50.782;6.080;2022-09-02T00:06:40;0.93;;;0.80;;
9844;SDS011;4961;50.782;6.080;2022-09-02T00:09:10;1.43;;;0.60;;
9844;SDS011;4961;50.782;6.080;2022-09-02T00:11:42;1.80;;;0.80;;
9844;SDS011;4961;50.782;6.080;2022-09-02T00:14:13;1.30;;;0.70;;
9844;SDS011;4961;50.782;6.080;2022-09-02T00:16:42;0.60;;;0.60;;
9844;SDS011;4961;50.782;6.080;2022-09-02T00:19:17;1.50;;;0.60;;
9844;SDS011;4961;50.782;6.080;2022-09-02T00:21:46;0.83;;;0.67;;
9844;SDS011;4961;50.782;6.080;2022-09-02T00:24:15;1.57;;;0.80;;
9844;SDS011;4961;50.782;6.080;2022-09-02T00:26:46;1.43;;;0.60;;
9844;SDS011;4961;50.782;6.080;2022-09-02T00:29:14;1.90;;;0.50;;
9844;SDS011;4961;50.782;6.080;2022-09-02T00:31:43;0.60;;;0.60;;
9844;SDS011;4961;50.782;6.080;2022-09-02T00:34:14;0.73;;;0.53;;
9844;SDS011;4961;50.782;6.080;2022-09-02T00:36:42;0.93;;;0.60;;
9844;SDS011;4961;50.782;6.080;2022-09-02T00:39:10;0.70;;;0.70;;
9844;SDS011;4961;50.782;6.080;2022-09-02T00:41:39;1.00;;;0.70;;
9844;SDS011;4961;50.782;6.080;2022-09-02T00:44:10;1.13;;;0.70;;
9844;SDS011;4961;50.782;6.080;2022-09-02T00:46:41;1.60;;;0.57;;
9844;SDS011;4961;50.782;6.080;2022-09-02T00:49:11;0.97;;;0.50;;
9844;SDS011;4961;50.782;6.080;2022-09-02T00:51:44;0.60;;;0.60;;
9844;SDS011;4961;50.782;6.080;2022-09-02T00:54:16;0.97;;;0.50;;
9844;SDS011;4961;50.782;6.080;2022-09-02T00:56:46;1.30;;;0.50;;
9844;SDS011;4961;50.782;6.080;2022-09-02T00:59:22;0.73;;;0.60;;
9844;SDS011;4961;50.782;6.080;2022-09-02T01:01:58;0.73;;;0.50;;
9844;SDS011;4961;50.782;6.080;2022-09-02T01:04:27;1.30;;;0.60;;
9844;SDS011;4961;50.782;6.080;2022-09-02T01:06:55;0.77;;;0.60;;
9844;SDS011;4961;50.782;6.080;2022-09-02T01:09:23;1.77;;;0.60;;
9844;SDS011;4961;50.782;6.080;2022-09-02T01:11:51;1.53;;;0.50;;
9844;SDS011;4961;50.782;6.080;2022-09-02T01:14:21;1.93;;;0.67;;
9844;SDS011;4961;50.782;6.080;2022-09-02T01:16:54;3.10;;;0.67;;
9844;SDS011;4961;50.782;6.080;2022-09-02T01:19:27;0.40;;;0.40;;
9844;SDS011;4961;50.782;6.080;2022-09-02T01:22:01;2.30;;;0.50;;
9844;SDS011;4961;50.782;6.080;2022-09-02T01:24:41;0.60;;;0.40;;
9844;SDS011;4961;50.782;6.080;2022-09-02T01:27:12;1.77;;;0.60;;
9844;SDS011;4961;50.782;6.080;2022-09-02T01:29:41;0.60;;;0.60;;
9844;SDS011;4961;50.782;6.080;2022-09-02T01:32:10;2.07;;;0.60;;
9844;SDS011;4961;50.782;6.080;2022-09-02T01:34:39;0.80;;;0.60;;
9844;SDS011;4961;50.782;6.080;2022-09-02T01:37:09;1.27;;;0.60;;
9844;SDS011;4961;50.782;6.080;2022-09-02T01:39:37;1.73;;;0.50;;
9844;SDS011;4961;50.782;6.080;2022-09-02T01:42:06;1.00;;;0.40;;
9844;SDS011;4961;50.782;6.080;2022-09-02T01:44:35;1.63;;;0.50;;
9844;SDS011;4961;50.782;6.080;2022-09-02T01:47:09;2.30;;;0.60;;
9844;SDS011;4961;50.782;6.080;2022-09-02T01:49:38;1.70;;;0.40;;
9844;SDS011;4961;50.782;6.080;2022-09-02T01:52:07;1.57;;;0.50;;
9844;SDS011;4961;50.782;6.080;2022-09-02T01:54:37;1.43;;;0.50;;
9844;SDS011;4961;50.782;6.080;2022-09-02T01:57:05;0.50;;;0.50;;
9844;SDS011;4961;50.782;6.080;2022-09-02T01:59:33;2.10;;;0.50;;
9844;SDS011;4961;50.782;6.080;2022-09-02T02:02:02;0.50;;;0.50;;
9844;SDS011;4961;50.782;6.080;2022-09-02T02:04:32;0.70;;;0.50;;
9844;SDS011;4961;50.782;6.080;2022-09-02T02:07:01;0.60;;;0.40;;
9844;SDS011;4961;50.782;6.080;2022-09-02T02:09:31;1.00;;;0.40;;
9844;SDS011;4961;50.782;6.080;2022-09-02T02:12:00;1.80;;;0.63;;
9844;SDS011;4961;50.782;6.080;2022-09-02T02:14:28;0.70;;;0.70;;
9844;SDS011;4961;50.782;6.080;2022-09-02T02:16:57;0.43;;;0.43;;
9844;SDS011;4961;50.782;6.080;2022-09-02T02:19:25;1.20;;;0.70;;
9844;SDS011;4961;50.782;6.080;2022-09-02T02:21:53;1.80;;;0.60;;
9844;SDS011;4961;50.782;6.080;2022-09-02T02:24:22;0.57;;;0.57;;
9844;SDS011;4961;50.782;6.080;2022-09-02T02:26:52;0.90;;;0.60;;
9844;SDS011;4961;50.782;6.080;2022-09-02T02:29:21;0.60;;;0.60;;
9844;SDS011;4961;50.782;6.080;2022-09-02T02:31:49;3.93;;;0.60;;
9844;SDS011;4961;50.782;6.080;2022-09-02T02:34:17;0.50;;;0.50;;
9844;SDS011;4961;50.782;6.080;2022-09-02T02:36:45;0.80;;;0.57;;
9844;SDS011;4961;50.782;6.080;2022-09-02T02:39:14;1.43;;;0.57;;
9844;SDS011;4961;50.782;6.080;2022-09-02T02:41:42;1.43;;;0.60;;
9844;SDS011;4961;50.782;6.080;2022-09-02T02:44:13;0.60;;;0.60;;
9844;SDS011;4961;50.782;6.080;2022-09-02T02:46:42;1.63;;;0.70;;
9844;SDS011;4961;50.782;6.080;2022-09-02T02:49:10;1.87;;;0.70;;
9844;SDS011;4961;50.782;6.080;2022-09-02T02:51:39;1.10;;;0.67;;
9844;SDS011;4961;50.782;6.080;2022-09-02T02:54:07;1.00;;;0.70;;
9844;SDS011;4961;50.782;6.080;2022-09-02T02:56:36;0.60;;;0.60;;
9844;SDS011;4961;50.782;6.080;2022-09-02T02:59:05;1.00;;;0.60;;
9844;SDS011;4961;50.782;6.080;2022-09-02T03:01:35;0.60;;;0.57;;
9844;SDS011;4961;50.782;6.080;2022-09-02T03:04:03;1.63;;;0.50;;
9844;SDS011;4961;50.782;6.080;2022-09-02T03:06:31;0.93;;;0.60;;
9844;SDS011;4961;50.782;6.080;2022-09-02T03:09:01;0.60;;;0.50;;
9844;SDS011;4961;50.782;6.080;2022-09-02T03:11:29;1.67;;;0.50;;
9844;SDS011;4961;50.782;6.080;2022-09-02T03:13:58;0.60;;;0.60;;
9844;SDS011;4961;50.782;6.080;2022-09-02T03:16:26;0.87;;;0.50;;
9844;SDS011;4961;50.782;6.080;2022-09-02T03:18:56;0.50;;;0.50;;
9844;SDS011;4961;50.782;6.080;2022-09-02T03:21:24;0.60;;;0.50;;
9844;SDS011;4961;50.782;6.080;2022-09-02T03:23:52;0.63;;;0.60;;
9844;SDS011;4961;50.782;6.080;2022-09-02T03:26:23;2.30;;;0.70;;
9844;SDS011;4961;50.782;6.080;2022-09-02T03:28:53;1.37;;;0.60;;
9844;SDS011;4961;50.782;6.080;2022-09-02T03:31:22;1.40;;;0.50;;
9844;SDS011;4961;50.782;6.080;2022-09-02T03:33:52;0.60;;;0.60;;
9844;SDS011;4961;50.782;6.080;2022-09-02T03:36:22;0.50;;;0.50;;
9844;SDS011;4961;50.782;6.080;2022-09-02T03:38:53;1.20;;;0.80;;
9844;SDS011;4961;50.782;6.080;2022-09-02T03:41:22;1.47;;;0.77;;
9844;SDS011;4961;50.782;6.080;2022-09-02T03:43:51;0.83;;;0.70;;
9844;SDS011;4961;50.782;6.080;2022-09-02T03:46:19;1.20;;;0.60;;
9844;SDS011;4961;50.782;6.080;2022-09-02T03:48:48;1.23;;;0.70;;
9844;SDS011;4961;50.782;6.080;2022-09-02T03:51:17;1.10;;;0.80;;
9844;SDS011;4961;50.782;6.080;2022-09-02T03:53:47;2.73;;;0.80;;
9844;SDS011;4961;50.782;6.080;2022-09-02T03:56:15;2.80;;;0.90;;
9844;SDS011;4961;50.782;6.080;2022-09-02T03:58:46;1.27;;;0.70;;
9844;SDS011;4961;50.782;6.080;2022-09-02T04:01:17;2.60;;;0.60;;
9844;SDS011;4961;50.782;6.080;2022-09-02T04:03:48;2.30;;;0.60;;
9844;SDS011;4961;50.782;6.080;2022-09-02T04:06:19;1.10;;;0.70;;
9844;SDS011;4961;50.782;6.080;2022-09-02T04:08:59;0.60;;;0.60;;
9844;SDS011;4961;50.782;6.080;2022-09-02T04:11:28;0.70;;;0.70;;
9844;SDS011;4961;50.782;6.080;2022-09-02T04:13:57;2.40;;;0.90;;
9844;SDS011;4961;50.782;6.080;2022-09-02T04:16:25;1.17;;;1.00;;
9844;SDS011;4961;50.782;6.080;2022-09-02T04:18:54;0.60;;;0.60;;
9844;SDS011;4961;50.782;6.080;2022-09-02T04:21:23;1.10;;;0.70;;
9844;SDS011;4961;50.782;6.080;2022-09-02T04:23:52;0.83;;;0.80;;
9844;SDS011;4961;50.782;6.080;2022-09-02T04:26:22;0.60;;;0.60;;
9844;SDS011;4961;50.782;6.080;2022-09-02T04:28:50;0.83;;;0.83;;
9844;SDS011;4961;50.782;6.080;2022-09-02T04:31:20;0.83;;;0.67;;
9844;SDS011;4961;50.782;6.080;2022-09-02T04:33:51;0.83;;;0.80;;
9844;SDS011;4961;50.782;6.080;2022-09-02T04:36:19;0.73;;;0.73;;
9844;SDS011;4961;50.782;6.080;2022-09-02T04:38:49;1.63;;;0.90;;
9844;SDS011;4961;50.782;6.080;2022-09-02T04:41:19;1.80;;;0.70;;
9844;SDS011;4961;50.782;6.080;2022-09-02T04:43:51;1.80;;;0.90;;
9844;SDS011;4961;50.782;6.080;2022-09-02T04:46:21;1.57;;;0.90;;
9844;SDS011;4961;50.782;6.080;2022-09-02T04:49:00;1.50;;;0.90;;
9844;SDS011;4961;50.782;6.080;2022-09-02T04:51:28;1.50;;;1.10;;
9844;SDS011;4961;50.782;6.080;2022-09-02T04:53:57;1.77;;;0.90;;
9844;SDS011;4961;50.782;6.080;2022-09-02T04:56:29;1.27;;;0.80;;
9844;SDS011;4961;50.782;6.080;2022-09-02T04:58:58;0.97;;;0.73;;
9844;SDS011;4961;50.782;6.080;2022-09-02T05:01:28;1.73;;;0.77;;
9844;SDS011;4961;50.782;6.080;2022-09-02T05:03:58;0.83;;;0.83;;
9844;SDS011;4961;50.782;6.080;2022-09-02T05:06:28;7.70;;;1.93;;
9844;SDS011;4961;50.782;6.080;2022-09-02T05:08:58;0.80;;;0.80;;
9844;SDS011;4961;50.782;6.080;2022-09-02T05:11:29;1.67;;;0.90;;
9844;SDS011;4961;50.782;6.080;2022-09-02T05:14:00;1.40;;;0.80;;
9844;SDS011;4961;50.782;6.080;2022-09-02T05:16:33;1.20;;;0.90;;
9844;SDS011;4961;50.782;6.080;2022-09-02T05:19:03;3.03;;;0.80;;
9844;SDS011;4961;50.782;6.080;2022-09-02T05:21:32;0.80;;;0.80;;
9844;SDS011;4961;50.782;6.080;2022-09-02T05:24:06;2.17;;;1.10;;
9844;SDS011;4961;50.782;6.080;2022-09-02T05:26:39;3.00;;;1.07;;
9844;SDS011;4961;50.782;6.080;2022-09-02T05:29:10;2.40;;;0.90;;
9844;SDS011;4961;50.782;6.080;2022-09-02T05:31:39;2.47;;;0.90;;
9844;SDS011;4961;50.782;6.080;2022-09-02T05:34:07;1.87;;;0.97;;
9844;SDS011;4961;50.782;6.080;2022-09-02T05:36:36;0.90;;;0.90;;
9844;SDS011;4961;50.782;6.080;2022-09-02T05:39:04;1.83;;;0.70;;
9844;SDS011;4961;50.782;6.080;2022-09-02T05:41:32;1.70;;;0.83;;
9844;SDS011;4961;50.782;6.080;2022-09-02T05:44:03;1.33;;;1.00;;
9844;SDS011;4961;50.782;6.080;2022-09-02T05:46:32;0.90;;;0.90;;
9844;SDS011;4961;50.782;6.080;2022-09-02T05:49:01;3.27;;;1.07;;
9844;SDS011;4961;50.782;6.080;2022-09-02T05:51:37;1.00;;;0.90;;
9844;SDS011;4961;50.782;6.080;2022-09-02T05:54:08;1.23;;;0.90;;
9844;SDS011;4961;50.782;6.080;2022-09-02T05:56:38;2.53;;;0.90;;
9844;SDS011;4961;50.782;6.080;2022-09-02T05:59:12;1.07;;;0.80;;
9844;SDS011;4961;50.782;6.080;2022-09-02T06:01:41;1.63;;;0.90;;
9844;SDS011;4961;50.782;6.080;2022-09-02T06:04:09;1.93;;;1.10;;
9844;SDS011;4961;50.782;6.080;2022-09-02T06:06:37;8.80;;;1.10;;
9844;SDS011;4961;50.782;6.080;2022-09-02T06:09:08;3.27;;;1.10;;
9844;SDS011;4961;50.782;6.080;2022-09-02T06:11:40;2.43;;;1.20;;
9844;SDS011;4961;50.782;6.080;2022-09-02T06:14:14;1.67;;;1.10;;
9844;SDS011;4961;50.782;6.080;2022-09-02T06:16:44;1.20;;;1.00;;
9844;SDS011;4961;50.782;6.080;2022-09-02T06:19:13;4.33;;;1.20;;
9844;SDS011;4961;50.782;6.080;2022-09-02T06:21:45;2.40;;;1.10;;
9844;SDS011;4961;50.782;6.080;2022-09-02T06:24:14;4.53;;;1.17;;
9844;SDS011;4961;50.782;6.080;2022-09-02T06:26:43;2.80;;;1.10;;
9844;SDS011;4961;50.782;6.080;2022-09-02T06:29:11;2.73;;;1.07;;
9844;SDS011;4961;50.782;6.080;2022-09-02T06:31:42;3.17;;;0.80;;
9844;SDS011;4961;50.782;6.080;2022-09-02T06:34:12;1.37;;;1.00;;
9844;SDS011;4961;50.782;6.080;2022-09-02T06:36:42;2.30;;;1.10;;
9844;SDS011;4961;50.782;6.080;2022-09-02T06:39:14;3.73;;;1.20;;
9844;SDS011;4961;50.782;6.080;2022-09-02T06:41:45;3.03;;;1.23;;
9844;SDS011;4961;50.782;6.080;2022-09-02T06:44:18;2.50;;;0.70;;
9844;SDS011;4961;50.782;6.080;2022-09-02T06:46:51;2.97;;;1.00;;
9844;SDS011;4961;50.782;6.080;2022-09-02T06:49:21;4.00;;;1.10;;
9844;SDS011;4961;50.782;6.080;2022-09-02T06:51:51;1.10;;;0.90;;
9844;SDS011;4961;50.782;6.080;2022-09-02T06:54:21;1.37;;;1.00;;
9844;SDS011;4961;50.782;6.080;2022-09-02T06:56:50;4.73;;;0.90;;
9844;SDS011;4961;50.782;6.080;2022-09-02T06:59:21;2.43;;;1.00;;
9844;SDS011;4961;50.782;6.080;2022-09-02T07:01:49;3.93;;;0.90;;
9844;SDS011;4961;50.782;6.080;2022-09-02T07:04:18;2.10;;;1.00;;
9844;SDS011;4961;50.782;6.080;2022-09-02T07:07:05;1.83;;;1.00;;
9844;SDS011;4961;50.782;6.080;2022-09-02T07:09:37;1.90;;;1.07;;
9844;SDS011;4961;50.782;6.080;2022-09-02T07:12:06;2.30;;;1.20;;
9844;SDS011;4961;50.782;6.080;2022-09-02T07:14:36;3.57;;;1.10;;
9844;SDS011;4961;50.782;6.080;2022-09-02T07:17:06;2.80;;;1.00;;
9844;SDS011;4961;50.782;6.080;2022-09-02T07:19:35;1.20;;;0.90;;
9844;SDS011;4961;50.782;6.080;2022-09-02T07:22:04;1.60;;;0.90;;
9844;SDS011;4961;50.782;6.080;2022-09-02T07:24:33;3.63;;;1.00;;
9844;SDS011;4961;50.782;6.080;2022-09-02T07:27:02;3.60;;;1.20;;
9844;SDS011;4961;50.782;6.080;2022-09-02T07:29:31;1.70;;;1.10;;
9844;SDS011;4961;50.782;6.080;2022-09-02T07:32:02;2.13;;;0.80;;
9844;SDS011;4961;50.782;6.080;2022-09-02T07:34:30;1.53;;;0.80;;
9844;SDS011;4961;50.782;6.080;2022-09-02T07:36:59;1.97;;;1.00;;
9844;SDS011;4961;50.782;6.080;2022-09-02T07:39:34;0.80;;;0.80;;
9844;SDS011;4961;50.782;6.080;2022-09-02T07:42:02;1.60;;;0.90;;
9844;SDS011;4961;50.782;6.080;2022-09-02T07:44:33;2.33;;;0.80;;
9844;SDS011;4961;50.782;6.080;2022-09-02T07:47:05;3.90;;;0.90;;
9844;SDS011;4961;50.782;6.080;2022-09-02T07:49:33;3.07;;;0.80;;
9844;SDS011;4961;50.782;6.080;2022-09-02T07:52:22;4.50;;;0.70;;
9844;SDS011;4961;50.782;6.080;2022-09-02T07:54:50;0.80;;;0.77;;
9844;SDS011;4961;50.782;6.080;2022-09-02T07:57:19;2.17;;;0.80;;
9844;SDS011;4961;50.782;6.080;2022-09-02T07:59:47;1.10;;;0.90;;
9844;SDS011;4961;50.782;6.080;2022-09-02T08:02:17;2.20;;;0.60;;
9844;SDS011;4961;50.782;6.080;2022-09-02T08:04:45;1.97;;;0.60;;
9844;SDS011;4961;50.782;6.080;2022-09-02T08:07:15;0.60;;;0.60;;
9844;SDS011;4961;50.782;6.080;2022-09-02T08:09:49;1.43;;;0.60;;
9844;SDS011;4961;50.782;6.080;2022-09-02T08:12:18;5.17;;;0.90;;
9844;SDS011;4961;50.782;6.080;2022-09-02T08:14:47;0.50;;;0.50;;
9844;SDS011;4961;50.782;6.080;2022-09-02T08:17:18;0.90;;;0.50;;
9844;SDS011;4961;50.782;6.080;2022-09-02T08:19:46;0.60;;;0.60;;
9844;SDS011;4961;50.782;6.080;2022-09-02T08:22:15;0.60;;;0.60;;
9844;SDS011;4961;50.782;6.080;2022-09-02T08:24:43;1.10;;;0.80;;
9844;SDS011;4961;50.782;6.080;2022-09-02T08:27:11;2.33;;;0.70;;
9844;SDS011;4961;50.782;6.080;2022-09-02T08:29:40;2.47;;;0.70;;
9844;SDS011;4961;50.782;6.080;2022-09-02T08:32:09;0.80;;;0.80;;
9844;SDS011;4961;50.782;6.080;2022-09-02T08:34:39;0.80;;;0.60;;
9844;SDS011;4961;50.782;6.080;2022-09-02T08:37:07;0.70;;;0.60;;
9844;SDS011;4961;50.782;6.080;2022-09-02T08:39:35;3.27;;;0.60;;
9844;SDS011;4961;50.782;6.080;2022-09-02T08:42:06;0.87;;;0.87;;
9844;SDS011;4961;50.782;6.080;2022-09-02T08:44:41;0.60;;;0.60;;
9844;SDS011;4961;50.782;6.080;2022-09-02T08:47:11;0.90;;;0.60;;
9844;SDS011;4961;50.782;6.080;2022-09-02T08:49:54;0.80;;;0.60;;
9844;SDS011;4961;50.782;6.080;2022-09-02T08:52:27;1.00;;;0.57;;
9844;SDS011;4961;50.782;6.080;2022-09-02T08:55:00;1.47;;;0.60;;
9844;SDS011;4961;50.782;6.080;2022-09-02T08:57:28;1.10;;;0.60;;
9844;SDS011;4961;50.782;6.080;2022-09-02T08:59:59;1.77;;;0.60;;
9844;SDS011;4961;50.782;6.080;2022-09-02T09:02:35;0.60;;;0.60;;
9844;SDS011;4961;50.782;6.080;2022-09-02T09:05:20;0.50;;;0.50;;
9844;SDS011;4961;50.782;6.080;2022-09-02T09:07:58;0.77;;;0.60;;
9844;SDS011;4961;50.782;6.080;2022-09-02T09:10:42;1.37;;;0.60;;
9844;SDS011;4961;50.782;6.080;2022-09-02T09:13:36;1.40;;;0.67;;
9844;SDS011;4961;50.782;6.080;2022-09-02T09:16:25;1.90;;;0.67;;
9844;SDS011;4961;50.782;6.080;2022-09-02T09:19:02;0.60;;;0.60;;
9844;SDS011;4961;50.782;6.080;2022-09-02T09:21:38;2.10;;;0.60;;
9844;SDS011;4961;50.782;6.080;2022-09-02T09:24:08;0.53;;;0.50;;
9844;SDS011;4961;50.782;6.080;2022-09-02T09:26:46;0.60;;;0.60;;
9844;SDS011;4961;50.782;6.080;2022-09-02T09:29:15;0.73;;;0.50;;
9844;SDS011;4961;50.782;6.080;2022-09-02T09:31:43;0.80;;;0.60;;
9844;SDS011;4961;50.782;6.080;2022-09-02T09:34:19;1.13;;;1.03;;
9844;SDS011;4961;50.782;6.080;2022-09-02T09:36:50;2.40;;;0.70;;
9844;SDS011;4961;50.782;6.080;2022-09-02T09:39:24;0.60;;;0.60;;
9844;SDS011;4961;50.782;6.080;2022-09-02T09:41:54;0.60;;;0.43;;
9844;SDS011;4961;50.782;6.080;2022-09-02T09:44:33;0.50;;;0.50;;
9844;SDS011;4961;50.782;6.080;2022-09-02T09:47:05;0.63;;;0.50;;
9844;SDS011;4961;50.782;6.080;2022-09-02T09:49:35;1.00;;;0.80;;
9844;SDS011;4961;50.782;6.080;2022-09-02T09:52:05;1.17;;;0.40;;
9844;SDS011;4961;50.782;6.080;2022-09-02T09:54:34;4.10;;;0.63;;
9844;SDS011;4961;50.782;6.080;2022-09-02T09:57:13;1.30;;;0.60;;
9844;SDS011;4961;50.782;6.080;2022-09-02T09:59:47;0.60;;;0.60;;
9844;SDS011;4961;50.782;6.080;2022-09-02T10:02:22;0.73;;;0.43;;
9844;SDS011;4961;50.782;6.080;2022-09-02T10:04:52;1.23;;;0.60;;
9844;SDS011;4961;50.782;6.080;2022-09-02T10:07:38;1.33;;;0.47;;
9844;SDS011;4961;50.782;6.080;2022-09-02T10:10:11;0.70;;;0.60;;
9844;SDS011;4961;50.782;6.080;2022-09-02T10:12:44;0.63;;;0.63;;
9844;SDS011;4961;50.782;6.080;2022-09-02T10:15:15;1.07;;;0.97;;
9844;SDS011;4961;50.782;6.080;2022-09-02T10:17:50;0.60;;;0.50;;
9844;SDS011;4961;50.782;6.080;2022-09-02T10:20:28;2.83;;;0.60;;
9844;SDS011;4961;50.782;6.080;2022-09-02T10:23:27;0.50;;;0.50;;
9844;SDS011;4961;50.782;6.080;2022-09-02T10:26:11;1.17;;;0.60;;
9844;SDS011;4961;50.782;6.080;2022-09-02T10:28:51;0.53;;;0.53;;
9844;SDS011;4961;50.782;6.080;2022-09-02T10:31:43;0.60;;;0.60;;
9844;SDS011;4961;50.782;6.080;2022-09-02T10:34:20;0.80;;;0.63;;
9844;SDS011;4961;50.782;6.080;2022-09-02T10:37:07;0.70;;;0.70;;
9844;SDS011;4961;50.782;6.080;2022-09-02T10:39:49;1.67;;;0.50;;
9844;SDS011;4961;50.782;6.080;2022-09-02T10:42:42;1.03;;;0.40;;
9844;SDS011;4961;50.782;6.080;2022-09-02T10:45:22;1.93;;;0.70;;
9844;SDS011;4961;50.782;6.080;2022-09-02T10:48:00;0.70;;;0.70;;
9844;SDS011;4961;50.782;6.080;2022-09-02T10:50:51;1.33;;;0.60;;
9844;SDS011;4961;50.782;6.080;2022-09-02T10:56:20;4.63;;;0.70;;
9844;SDS011;4961;50.782;6.080;2022-09-02T10:58:54;1.33;;;0.60;;
9844;SDS011;4961;50.782;6.080;2022-09-02T11:01:27;0.90;;;0.60;;
9844;SDS011;4961;50.782;6.080;2022-09-02T11:04:04;0.60;;;0.60;;
9844;SDS011;4961;50.782;6.080;2022-09-02T11:06:39;1.17;;;0.60;;
9844;SDS011;4961;50.782;6.080;2022-09-02T11:09:32;0.60;;;0.60;;
9844;SDS011;4961;50.782;6.080;2022-09-02T11:12:06;1.30;;;0.60;;
9844;SDS011;4961;50.782;6.080;2022-09-02T11:14:40;1.17;;;0.50;;
9844;SDS011;4961;50.782;6.080;2022-09-02T11:17:21;0.60;;;0.60;;
9844;SDS011;4961;50.782;6.080;2022-09-02T11:19:58;1.10;;;0.67;;
9844;SDS011;4961;50.782;6.080;2022-09-02T11:22:34;0.93;;;0.70;;
9844;SDS011;4961;50.782;6.080;2022-09-02T11:25:09;0.70;;;0.60;;
9844;SDS011;4961;50.782;6.080;2022-09-02T11:27:45;1.37;;;0.67;;
9844;SDS011;4961;50.782;6.080;2022-09-02T11:30:21;1.77;;;0.60;;
9844;SDS011;4961;50.782;6.080;2022-09-02T11:32:52;5.13;;;0.57;;
9844;SDS011;4961;50.782;6.080;2022-09-02T11:35:24;0.60;;;0.60;;
9844;SDS011;4961;50.782;6.080;2022-09-02T11:37:54;2.23;;;0.60;;
9844;SDS011;4961;50.782;6.080;2022-09-02T11:40:29;0.60;;;0.50;;
9844;SDS011;4961;50.782;6.080;2022-09-02T11:46:11;0.60;;;0.60;;
9844;SDS011;4961;50.782;6.080;2022-09-02T11:49:06;1.40;;;0.50;;
9844;SDS011;4961;50.782;6.080;2022-09-02T11:52:00;0.60;;;0.60;;
9844;SDS011;4961;50.782;6.080;2022-09-02T11:54:45;1.90;;;0.53;;
9844;SDS011;4961;50.782;6.080;2022-09-02T11:57:24;0.60;;;0.60;;
9844;SDS011;4961;50.782;6.080;2022-09-02T12:00:03;2.30;;;0.60;;
9844;SDS011;4961;50.782;6.080;2022-09-02T12:02:37;3.00;;;0.60;;
9844;SDS011;4961;50.782;6.080;2022-09-02T12:11:34;1.47;;;0.70;;
9844;SDS011;4961;50.782;6.080;2022-09-02T12:14:08;3.97;;;0.60;;
9844;SDS011;4961;50.782;6.080;2022-09-02T12:16:43;1.27;;;0.60;;
9844;SDS011;4961;50.782;6.080;2022-09-02T12:19:31;1.57;;;0.50;;
9844;SDS011;4961;50.782;6.080;2022-09-02T12:22:25;0.87;;;0.67;;
9844;SDS011;4961;50.782;6.080;2022-09-02T12:24:59;1.07;;;0.87;;
9844;SDS011;4961;50.782;6.080;2022-09-02T12:27:30;0.60;;;0.60;;
9844;SDS011;4961;50.782;6.080;2022-09-02T12:30:05;2.13;;;0.70;;
9844;SDS011;4961;50.782;6.080;2022-09-02T12:35:50;0.97;;;0.60;;
9844;SDS011;4961;50.782;6.080;2022-09-02T12:38:26;2.50;;;0.70;;
9844;SDS011;4961;50.782;6.080;2022-09-02T12:41:10;0.70;;;0.70;;
9844;SDS011;4961;50.782;6.080;2022-09-02T12:43:54;0.90;;;0.60;;
9844;SDS011;4961;50.782;6.080;2022-09-02T12:46:45;0.70;;;0.47;;
9844;SDS011;4961;50.782;6.080;2022-09-02T12:49:27;1.67;;;0.53;;
9844;SDS011;4961;50.782;6.080;2022-09-02T12:52:07;0.80;;;0.80;;
9844;SDS011;4961;50.782;6.080;2022-09-02T12:54:40;2.30;;;0.50;;
9844;SDS011;4961;50.782;6.080;2022-09-02T12:57:14;0.70;;;0.70;;
9844;SDS011;4961;50.782;6.080;2022-09-02T12:59:43;1.57;;;0.53;;
9844;SDS011;4961;50.782;6.080;2022-09-02T13:02:27;1.07;;;0.50;;
9844;SDS011;4961;50.782;6.080;2022-09-02T13:05:12;1.90;;;0.63;;
9844;SDS011;4961;50.782;6.080;2022-09-02T13:08:00;0.63;;;0.50;;
9844;SDS011;4961;50.782;6.080;2022-09-02T13:17:07;2.63;;;0.63;;
9844;SDS011;4961;50.782;6.080;2022-09-02T13:23:06;0.43;;;0.43;;
9844;SDS011;4961;50.782;6.080;2022-09-02T13:26:05;1.83;;;0.70;;
9844;SDS011;4961;50.782;6.080;2022-09-02T13:29:11;0.50;;;0.50;;
9844;SDS011;4961;50.782;6.080;2022-09-02T13:31:57;2.00;;;0.60;;
9844;SDS011;4961;50.782;6.080;2022-09-02T13:34:28;1.10;;;0.90;;
9844;SDS011;4961;50.782;6.080;2022-09-02T13:36:59;1.43;;;0.80;;
9844;SDS011;4961;50.782;6.080;2022-09-02T13:39:27;1.90;;;0.60;;
9844;SDS011;4961;50.782;6.080;2022-09-02T13:41:56;1.23;;;0.50;;
9844;SDS011;4961;50.782;6.080;2022-09-02T13:44:25;0.60;;;0.60;;
9844;SDS011;4961;50.782;6.080;2022-09-02T13:46:56;1.07;;;0.60;;
9844;SDS011;4961;50.782;6.080;2022-09-02T13:49:31;0.77;;;0.60;;
9844;SDS011;4961;50.782;6.080;2022-09-02T13:52:05;0.50;;;0.50;;
9844;SDS011;4961;50.782;6.080;2022-09-02T13:54:43;3.73;;;1.20;;
9844;SDS011;4961;50.782;6.080;2022-09-02T13:57:16;0.87;;;0.70;;
9844;SDS011;4961;50.782;6.080;2022-09-02T13:59:51;0.60;;;0.60;;
9844;SDS011;4961;50.782;6.080;2022-09-02T14:02:22;1.60;;;0.50;;
9844;SDS011;4961;50.782;6.080;2022-09-02T14:04:55;2.77;;;0.57;;
9844;SDS011;4961;50.782;6.080;2022-09-02T14:07:29;0.53;;;0.53;;
9844;SDS011;4961;50.782;6.080;2022-09-02T14:09:59;2.10;;;0.50;;
9844;SDS011;4961;50.782;6.080;2022-09-02T14:12:30;1.27;;;0.50;;
9844;SDS011;4961;50.782;6.080;2022-09-02T14:15:01;0.87;;;0.60;;
9844;SDS011;4961;50.782;6.080;2022-09-02T14:17:32;0.90;;;0.40;;
9844;SDS011;4961;50.782;6.080;2022-09-02T14:20:14;0.30;;;0.30;;
9844;SDS011;4961;50.782;6.080;2022-09-02T14:22:52;1.23;;;0.40;;
9844;SDS011;4961;50.782;6.080;2022-09-02T14:25:21;1.07;;;0.40;;
9844;SDS011;4961;50.782;6.080;2022-09-02T14:27:53;0.57;;;0.57;;
9844;SDS011;4961;50.782;6.080;2022-09-02T14:30:28;0.93;;;0.57;;
9844;SDS011;4961;50.782;6.080;2022-09-02T14:35:58;0.97;;;0.60;;
9844;SDS011;4961;50.782;6.080;2022-09-02T14:38:28;0.60;;;0.60;;
9844;SDS011;4961;50.782;6.080;2022-09-02T14:41:02;1.40;;;0.60;;
9844;SDS011;4961;50.782;6.080;2022-09-02T14:43:40;2.17;;;0.50;;
9844;SDS011;4961;50.782;6.080;2022-09-02T14:46:18;0.87;;;0.50;;
9844;SDS011;4961;50.782;6.080;2022-09-02T14:49:00;0.50;;;0.50;;
9844;SDS011;4961;50.782;6.080;2022-09-02T14:51:35;2.00;;;0.70;;
9844;SDS011;4961;50.782;6.080;2022-09-02T14:54:06;0.90;;;0.50;;
9844;SDS011;4961;50.782;6.080;2022-09-02T14:56:42;2.40;;;0.50;;
9844;SDS011;4961;50.782;6.080;2022-09-02T14:59:14;0.47;;;0.47;;
9844;SDS011;4961;50.782;6.080;2022-09-02T15:01:44;1.30;;;0.60;;
9844;SDS011;4961;50.782;6.080;2022-09-02T15:04:16;2.37;;;0.50;;
9844;SDS011;4961;50.782;6.080;2022-09-02T15:06:45;1.17;;;0.50;;
9844;SDS011;4961;50.782;6.080;2022-09-02T15:09:15;1.10;;;0.60;;
9844;SDS011;4961;50.782;6.080;2022-09-02T15:11:44;2.50;;;0.60;;
9844;SDS011;4961;50.782;6.080;2022-09-02T15:14:17;0.87;;;0.63;;
9844;SDS011;4961;50.782;6.080;2022-09-02T15:16:45;0.50;;;0.47;;
9844;SDS011;4961;50.782;6.080;2022-09-02T15:19:13;2.10;;;0.60;;
9844;SDS011;4961;50.782;6.080;2022-09-02T15:21:42;1.53;;;0.50;;
9844;SDS011;4961;50.782;6.080;2022-09-02T15:24:10;0.50;;;0.50;;
9844;SDS011;4961;50.782;6.080;2022-09-02T15:26:41;1.17;;;0.50;;
9844;SDS011;4961;50.782;6.080;2022-09-02T15:29:11;0.40;;;0.40;;
9844;SDS011;4961;50.782;6.080;2022-09-02T15:31:40;0.77;;;0.50;;
9844;SDS011;4961;50.782;6.080;2022-09-02T15:34:09;0.90;;;0.50;;
9844;SDS011;4961;50.782;6.080;2022-09-02T15:36:37;2.40;;;0.40;;
9844;SDS011;4961;50.782;6.080;2022-09-02T15:39:05;1.57;;;0.50;;
9844;SDS011;4961;50.782;6.080;2022-09-02T15:41:35;2.03;;;0.60;;
9844;SDS011;4961;50.782;6.080;2022-09-02T15:44:11;1.90;;;0.60;;
9844;SDS011;4961;50.782;6.080;2022-09-02T15:46:44;1.67;;;0.60;;
9844;SDS011;4961;50.782;6.080;2022-09-02T15:49:13;2.00;;;0.50;;
9844;SDS011;4961;50.782;6.080;2022-09-02T15:51:42;2.00;;;0.60;;
9844;SDS011;4961;50.782;6.080;2022-09-02T15:54:12;3.20;;;0.60;;
9844;SDS011;4961;50.782;6.080;2022-09-02T15:56:42;0.80;;;0.70;;
9844;SDS011;4961;50.782;6.080;2022-09-02T15:59:14;0.60;;;0.60;;
9844;SDS011;4961;50.782;6.080;2022-09-02T16:01:47;1.90;;;0.50;;
9844;SDS011;4961;50.782;6.080;2022-09-02T16:04:17;0.50;;;0.50;;
9844;SDS011;4961;50.782;6.080;2022-09-02T16:06:45;0.90;;;0.70;;
9844;SDS011;4961;50.782;6.080;2022-09-02T16:09:18;2.27;;;0.70;;
9844;SDS011;4961;50.782;6.080;2022-09-02T16:11:54;1.90;;;0.80;;
9844;SDS011;4961;50.782;6.080;2022-09-02T16:14:30;3.17;;;0.80;;
9844;SDS011;4961;50.782;6.080;2022-09-02T16:17:00;2.60;;;0.70;;